Time;durP1;ratioP1;P1;durP2;ratioP2;P2;SDS_P1;SDS_P2;PMS_P1;PMS_P2;Temp;Humidity;BMP_temperature;BMP_pressure;BME280_temperature;BME280_humidity;BME280_pressure;Samples;Min_cycle;Max_cycle;Signal;HPM_P1;HPM_P2
2022/07/15 00:00:48;;;;;;;91.63;52.17;;;17.20;99.90;;;;;;10063378;29;20127;-86
2022/07/15 00:05:49;;;;;;;72.30;44.55;;;17.20;99.90;;;;;;10089327;29;20025;-84
2022/07/15 00:15:53;;;;;;;59.33;37.08;;;17.20;99.90;;;;;;10132909;29;20086;-84
2022/07/15 00:20:53;;;;;;;45.88;32.83;;;17.20;99.90;;;;;;10121377;29;20507;-84
2022/07/15 00:25:54;;;;;;;72.90;40.42;;;17.10;99.90;;;;;;10123403;29;20547;-84
2022/07/15 00:30:55;;;;;;;47.35;33.53;;;17.20;99.90;;;;;;10128543;29;20128;-84
2022/07/15 00:35:56;;;;;;;58.90;36.80;;;17.00;99.90;;;;;;10123362;29;20035;-84
2022/07/15 00:40:56;;;;;;;58.03;37.72;;;17.00;99.90;;;;;;10133979;29;20056;-84
2022/07/15 00:45:57;;;;;;;64.10;41.80;;;16.90;99.90;;;;;;10136248;29;20087;-85
2022/07/15 00:50:58;;;;;;;63.85;41.28;;;16.90;99.90;;;;;;10130510;29;20453;-85
2022/07/15 00:56:01;;;;;;;66.20;44.58;;;16.90;99.90;;;;;;10116396;29;20051;-87
2022/07/15 01:01:03;;;;;;;54.40;40.03;;;16.90;99.90;;;;;;10113768;29;20503;-84
2022/07/15 01:06:04;;;;;;;52.08;35.83;;;16.90;99.90;;;;;;10112354;29;20020;-85
2022/07/15 01:11:05;;;;;;;56.30;37.25;;;16.90;99.90;;;;;;10132995;29;20036;-84
2022/07/15 01:16:05;;;;;;;48.90;33.60;;;16.80;99.90;;;;;;10086908;29;20028;-85
2022/07/15 01:21:06;;;;;;;56.17;35.30;;;16.90;99.90;;;;;;10082694;29;20076;-84
2022/07/15 01:26:06;;;;;;;50.78;35.63;;;16.90;99.90;;;;;;10082505;29;20482;-88
2022/07/15 01:31:08;;;;;;;51.45;34.00;;;16.90;99.90;;;;;;10098575;29;20150;-85
2022/07/15 01:36:09;;;;;;;47.72;32.15;;;16.80;99.90;;;;;;10108551;29;20044;-86
2022/07/15 01:41:12;;;;;;;55.70;35.33;;;16.80;99.90;;;;;;10104561;29;20048;-86
2022/07/15 01:46:12;;;;;;;47.05;32.47;;;16.70;99.90;;;;;;10098926;29;20482;-88
2022/07/15 01:51:13;;;;;;;46.00;30.88;;;16.60;99.90;;;;;;10076880;29;20044;-87
2022/07/15 01:56:13;;;;;;;43.55;29.77;;;16.60;99.90;;;;;;10093286;29;20028;-86
2022/07/15 02:01:14;;;;;;;38.33;26.80;;;16.50;99.90;;;;;;10101929;29;20044;-85
2022/07/15 02:06:15;;;;;;;42.08;26.88;;;16.40;99.90;;;;;;10095213;29;20036;-87
2022/07/15 02:11:15;;;;;;;42.53;26.17;;;16.20;99.90;;;;;;10119308;29;20445;-85
2022/07/15 02:16:16;;;;;;;45.63;28.48;;;16.10;99.90;;;;;;10092660;29;20128;-85
2022/07/15 02:21:17;;;;;;;39.17;25.45;;;16.00;99.90;;;;;;10108517;29;20044;-83
2022/07/15 02:26:18;;;;;;;36.33;23.73;;;15.90;99.90;;;;;;10115436;29;20040;-84
2022/07/15 02:31:18;;;;;;;34.78;23.77;;;15.80;99.90;;;;;;10105530;29;20063;-85
2022/07/15 02:36:19;;;;;;;29.58;20.42;;;15.70;99.90;;;;;;10120347;29;20024;-84
2022/07/15 02:41:19;;;;;;;28.40;18.45;;;15.60;99.90;;;;;;10092220;29;20034;-84
2022/07/15 02:46:20;;;;;;;27.40;16.20;;;15.40;99.90;;;;;;10092289;29;20028;-84
2022/07/15 02:51:21;;;;;;;32.65;17.67;;;15.30;99.90;;;;;;10089316;29;20128;-83
2022/07/15 02:56:21;;;;;;;29.88;18.65;;;15.20;99.90;;;;;;10111179;29;20512;-84
2022/07/15 03:01:22;;;;;;;24.27;15.93;;;15.00;99.90;;;;;;10091017;29;20037;-86
2022/07/15 03:06:22;;;;;;;36.20;17.52;;;14.80;99.90;;;;;;10112673;29;20489;-82
2022/07/15 03:11:23;;;;;;;25.88;15.18;;;14.60;99.90;;;;;;10091900;29;20052;-82
2022/07/15 03:16:23;;;;;;;25.85;16.00;;;14.40;99.90;;;;;;10085358;29;20037;-83
2022/07/15 03:21:24;;;;;;;19.42;12.18;;;14.20;99.90;;;;;;10108675;29;20111;-84
2022/07/15 03:26:24;;;;;;;18.63;11.57;;;14.20;99.90;;;;;;10104975;29;20048;-83
2022/07/15 03:31:25;;;;;;;19.27;12.98;;;14.20;99.90;;;;;;10121170;29;20049;-84
2022/07/15 03:36:25;;;;;;;20.02;12.52;;;14.20;99.90;;;;;;10099728;29;20107;-83
2022/07/15 03:41:26;;;;;;;20.38;12.05;;;14.20;99.90;;;;;;10112543;29;20049;-85
2022/07/15 03:46:27;;;;;;;14.60;10.43;;;14.10;99.90;;;;;;10103403;29;20058;-81
2022/07/15 03:51:31;;;;;;;16.05;8.60;;;14.00;99.90;;;;;;10100572;29;20048;-84
2022/07/15 03:56:31;;;;;;;15.23;8.82;;;13.90;99.90;;;;;;10112934;29;20140;-84
2022/07/15 04:01:33;;;;;;;11.57;7.20;;;13.80;99.90;;;;;;10114007;29;20549;-85
2022/07/15 04:06:33;;;;;;;11.38;6.47;;;13.80;99.90;;;;;;10079736;29;20382;-85
2022/07/15 04:11:34;;;;;;;18.95;6.60;;;13.70;99.90;;;;;;10100601;29;20056;-84
2022/07/15 04:16:34;;;;;;;12.77;6.65;;;13.80;99.90;;;;;;10112929;29;20037;-82
2022/07/15 04:21:35;;;;;;;9.93;5.88;;;13.70;99.90;;;;;;10105733;29;20036;-83
2022/07/15 04:26:35;;;;;;;10.00;6.70;;;13.80;99.90;;;;;;10097246;29;20033;-81
2022/07/15 04:31:36;;;;;;;10.38;6.43;;;13.80;99.90;;;;;;10109228;29;20041;-83
2022/07/15 04:36:37;;;;;;;8.45;5.10;;;13.90;99.90;;;;;;10104861;29;20048;-87
2022/07/15 04:41:37;;;;;;;10.57;4.72;;;14.00;99.90;;;;;;10108710;29;20021;-82
2022/07/15 04:46:38;;;;;;;8.85;4.20;;;14.20;99.90;;;;;;10107934;29;20111;-82
2022/07/15 04:51:38;;;;;;;8.23;3.90;;;14.40;99.90;;;;;;10106589;29;20040;-82
2022/07/15 04:56:39;;;;;;;5.97;4.55;;;14.60;99.90;;;;;;10103791;29;20040;-82
2022/07/15 05:01:39;;;;;;;9.93;4.28;;;14.60;99.90;;;;;;10095661;29;20645;-82
2022/07/15 05:06:40;;;;;;;9.68;4.80;;;14.70;99.90;;;;;;10102657;29;20029;-82
2022/07/15 05:11:40;;;;;;;9.38;4.70;;;14.70;99.90;;;;;;10085163;29;20063;-82
2022/07/15 05:16:41;;;;;;;12.43;4.68;;;14.80;99.90;;;;;;10092738;29;20037;-82
2022/07/15 05:21:42;;;;;;;6.97;4.00;;;15.00;99.90;;;;;;10095306;29;20040;-81
2022/07/15 05:26:42;;;;;;;8.50;4.25;;;15.00;99.90;;;;;;10090803;29;20029;-81
2022/07/15 05:31:44;;;;;;;8.30;5.13;;;15.20;99.90;;;;;;10109376;29;20481;-81
2022/07/15 05:36:45;;;;;;;12.52;5.30;;;15.30;99.90;;;;;;10104496;29;20080;-82
2022/07/15 05:47:52;;;;;;;10.13;4.70;;;15.30;99.90;;;;;;10069150;29;20052;-82
2022/07/15 05:53:06;;;;;;;6.45;3.55;;;15.30;99.90;;;;;;10076136;29;20043;-82
2022/07/15 05:58:08;;;;;;;4.40;3.45;;;15.30;99.90;;;;;;10129656;23;20060;-82
2022/07/15 06:03:08;;;;;;;6.60;3.22;;;15.50;99.90;;;;;;10117726;29;20088;-80
2022/07/15 06:08:35;;;;;;;5.10;3.03;;;15.60;99.90;;;;;;10107490;29;20184;-82
2022/07/15 06:13:35;;;;;;;7.43;3.20;;;15.70;99.90;;;;;;10098199;29;20081;-81
2022/07/15 06:18:37;;;;;;;6.15;2.80;;;15.70;99.90;;;;;;10078441;29;20029;-82
2022/07/15 06:23:43;;;;;;;6.15;3.40;;;15.70;99.90;;;;;;10088517;29;20103;-82
2022/07/15 06:28:50;;;;;;;7.47;4.10;;;15.80;99.90;;;;;;10091187;29;20037;-83
2022/07/15 06:35:06;;;;;;;;;;;;;;;;;;;;;
2022/07/15 06:39:56;;;;;;;5.40;3.22;;;16.10;99.90;;;;;;10043628;29;20123;-83
2022/07/15 06:44:56;;;;;;;8.60;3.38;;;16.20;99.90;;;;;;10097123;29;20405;-81
2022/07/15 06:49:59;;;;;;;5.80;3.25;;;16.40;99.90;;;;;;10113804;29;20089;-80
2022/07/15 07:00:42;;;;;;;6.25;3.13;;;17.10;99.90;;;;;;10044646;29;20045;-82
2022/07/15 07:05:43;;;;;;;4.63;2.80;;;18.20;99.90;;;;;;10141334;23;20065;-82
2022/07/15 07:10:43;;;;;;;7.07;3.05;;;19.50;99.90;;;;;;10129186;29;20044;-82
2022/07/15 07:15:44;;;;;;;5.72;3.08;;;20.30;99.90;;;;;;10105796;29;20041;-83
2022/07/15 07:20:45;;;;;;;5.97;2.55;;;20.70;99.90;;;;;;10116349;29;20033;-85
2022/07/15 07:25:45;;;;;;;3.47;2.10;;;20.90;99.90;;;;;;10121799;29;20124;-84
2022/07/15 07:30:46;;;;;;;4.90;2.58;;;21.30;99.90;;;;;;10120456;29;20040;-82
2022/07/15 07:35:47;;;;;;;6.75;2.33;;;21.30;99.90;;;;;;10112533;29;20036;-82
2022/07/15 07:40:48;;;;;;;5.43;2.40;;;21.40;99.90;;;;;;10120756;29;20032;-83
2022/07/15 07:45:48;;;;;;;3.78;1.75;;;21.10;99.90;;;;;;10128850;29;20025;-83
2022/07/15 07:50:49;;;;;;;7.28;1.58;;;21.10;99.90;;;;;;10128223;29;20048;-85
2022/07/15 07:55:50;;;;;;;4.07;1.52;;;20.70;99.90;;;;;;10109264;29;20430;-82
2022/07/15 08:00:55;;;;;;;1.83;0.95;;;20.50;99.90;;;;;;10127422;29;20124;-84
2022/07/15 08:05:55;;;;;;;2.63;1.40;;;20.10;99.90;;;;;;10127518;29;20536;-85
2022/07/15 08:10:57;;;;;;;2.70;1.23;;;20.00;99.90;;;;;;10128571;29;20040;-83
2022/07/15 08:15:57;;;;;;;3.38;1.38;;;20.10;99.90;;;;;;10129424;29;20033;-86
2022/07/15 08:20:58;;;;;;;2.33;1.15;;;19.70;99.90;;;;;;10128171;29;20025;-83
2022/07/15 08:25:59;;;;;;;4.55;1.35;;;19.90;99.90;;;;;;10128418;29;20474;-85
2022/07/15 08:30:59;;;;;;;2.83;1.23;;;19.70;99.90;;;;;;10128274;29;20045;-85
2022/07/15 08:36:00;;;;;;;3.08;1.15;;;19.50;99.90;;;;;;10123802;29;20056;-82
2022/07/15 08:41:01;;;;;;;3.60;1.55;;;19.30;99.90;;;;;;10111217;29;20041;-82
2022/07/15 08:46:02;;;;;;;3.60;1.20;;;19.20;99.90;;;;;;10127544;29;20039;-82
2022/07/15 08:51:05;;;;;;;2.80;1.10;;;19.60;99.90;;;;;;10111190;29;20049;-84
2022/07/15 08:56:06;;;;;;;2.10;1.10;;;19.60;99.90;;;;;;10126931;29;20031;-82
2022/07/15 09:01:07;;;;;;;1.40;1.30;;;19.70;99.90;;;;;;10127821;29;20044;-82
2022/07/15 09:06:08;;;;;;;4.40;1.52;;;20.20;99.90;;;;;;10126723;29;20106;-83
2022/07/15 09:11:08;;;;;;;2.63;0.90;;;20.80;99.90;;;;;;10125832;29;20120;-82
2022/07/15 09:16:13;;;;;;;3.85;1.20;;;20.60;99.90;;;;;;10126537;29;20037;-81
2022/07/15 09:21:20;;;;;;;1.92;1.00;;;20.70;99.90;;;;;;10126092;29;20028;-82
2022/07/15 09:26:27;;;;;;;2.65;1.20;;;20.80;99.90;;;;;;10109340;29;20091;-82
2022/07/15 09:36:55;;;;;;;3.65;1.23;;;20.40;99.90;;;;;;10125747;29;20056;-82
2022/07/15 09:42:06;;;;;;;1.42;1.13;;;20.40;99.90;;;;;;10126505;29;20127;-87
2022/07/15 09:47:18;;;;;;;1.90;1.10;;;20.70;99.90;;;;;;10125598;29;20039;-82
2022/07/15 09:52:18;;;;;;;1.95;1.10;;;20.50;99.90;;;;;;10121024;29;20100;-85
2022/07/15 09:57:21;;;;;;;2.33;1.10;;;20.20;99.90;;;;;;10125730;29;20028;-82
2022/07/15 10:02:22;;;;;;;4.70;1.80;;;19.90;99.90;;;;;;10124997;29;20049;-82
2022/07/15 10:07:25;;;;;;;3.65;1.30;;;20.00;99.90;;;;;;10125488;29;20484;-81
2022/07/15 10:12:33;;;;;;;1.98;1.00;;;20.20;99.10;;;;;;10124774;29;20041;-81
2022/07/15 10:17:47;;;;;;;1.90;1.05;;;20.50;99.90;;;;;;10125395;29;20413;-82
2022/07/15 10:23:00;;;;;;;5.43;1.23;;;21.00;97.00;;;;;;10101323;29;20036;-85
2022/07/15 10:28:22;;;;;;;1.88;0.98;;;21.50;96.50;;;;;;10132513;29;20694;-82
2022/07/15 10:33:22;;;;;;;3.75;1.15;;;21.40;92.30;;;;;;10115530;29;20039;-81
2022/07/15 10:38:23;;;;;;;1.67;0.90;;;21.80;93.50;;;;;;10132216;29;20024;-85
2022/07/15 10:43:43;;;;;;;2.90;0.90;;;22.20;89.90;;;;;;10132337;29;20476;-82
2022/07/15 10:48:46;;;;;;;2.90;0.90;;;21.50;91.00;;;;;;10131694;29;20048;-87
2022/07/15 10:53:47;;;;;;;2.30;1.00;;;21.50;89.20;;;;;;10132274;29;20025;-82
2022/07/15 10:59:21;;;;;;;3.92;0.90;;;21.90;90.00;;;;;;10132071;29;20120;-82
2022/07/15 11:04:26;;;;;;;3.75;1.08;;;21.50;90.60;;;;;;10131517;29;20088;-83
2022/07/15 11:09:55;;;;;;;2.83;1.13;;;21.40;90.50;;;;;;10131033;29;20051;-82
2022/07/15 11:15:04;;;;;;;6.10;1.60;;;21.90;81.10;;;;;;10131124;29;20599;-83
2022/07/15 11:20:13;;;;;;;2.58;0.90;;;22.10;88.10;;;;;;10114069;29;20029;-85
2022/07/15 11:25:28;;;;;;;3.10;0.98;;;22.80;90.80;;;;;;10114192;29;20033;-82
2022/07/15 11:30:53;;;;;;;2.37;1.00;;;22.70;83.00;;;;;;10113436;29;20045;-82
2022/07/15 11:35:56;;;;;;;2.17;0.60;;;22.40;86.30;;;;;;10130413;29;20025;-82
2022/07/15 11:46:22;;;;;;;1.40;0.80;;;22.90;87.20;;;;;;10130431;29;20040;-85
2022/07/15 11:51:26;;;;;;;2.08;0.70;;;23.00;78.30;;;;;;10129689;29;20075;-85
2022/07/15 11:56:26;;;;;;;1.33;0.80;;;23.00;78.10;;;;;;10129649;29;20025;-85
2022/07/15 12:01:28;;;;;;;1.88;0.85;;;23.00;76.40;;;;;;10123709;29;20036;-82
2022/07/15 12:06:31;;;;;;;3.08;0.80;;;23.00;76.50;;;;;;10129490;29;20046;-83
2022/07/15 12:11:37;;;;;;;0.80;0.80;;;23.20;77.20;;;;;;10128464;29;20041;-83
2022/07/15 12:16:50;;;;;;;5.32;1.88;;;23.20;74.30;;;;;;10126420;29;20395;-82
2022/07/15 12:21:57;;;;;;;4.28;1.40;;;22.60;74.30;;;;;;10127329;29;20043;-82
2022/07/15 12:26:59;;;;;;;3.97;1.25;;;22.50;72.90;;;;;;10133733;29;20029;-87
2022/07/15 12:32:03;;;;;;;1.73;0.65;;;22.80;76.10;;;;;;10110405;29;20416;-87
2022/07/15 12:37:03;;;;;;;2.00;0.90;;;23.30;70.70;;;;;;10127673;29;20036;-81
2022/07/15 12:42:04;;;;;;;1.33;0.88;;;23.60;69.90;;;;;;10127208;29;20036;-85
2022/07/15 12:47:06;;;;;;;1.38;0.93;;;23.50;69.60;;;;;;10126450;29;20530;-83
2022/07/15 12:52:31;;;;;;;2.67;0.95;;;23.70;67.50;;;;;;10127391;29;20400;-82
2022/07/15 12:57:34;;;;;;;2.30;1.20;;;23.10;68.20;;;;;;10127657;29;20064;-86
2022/07/15 13:03:17;;;;;;;2.05;0.90;;;23.20;68.10;;;;;;10132514;29;20065;-83
2022/07/15 13:08:24;;;;;;;1.55;1.15;;;23.30;67.30;;;;;;10103860;29;20055;-83
2022/07/15 13:13:27;;;;;;;2.95;1.20;;;23.20;68.90;;;;;;10122092;29;20036;-86
2022/07/15 13:18:29;;;;;;;8.57;1.30;;;23.40;66.00;;;;;;10116237;29;20029;-82
2022/07/15 13:23:31;;;;;;;1.33;1.05;;;23.40;66.10;;;;;;10120077;29;20037;-85
2022/07/15 13:28:32;;;;;;;1.50;0.90;;;23.40;66.60;;;;;;10099310;29;20067;-85
2022/07/15 13:33:32;;;;;;;2.50;1.10;;;23.40;68.20;;;;;;10111116;29;20569;-86
2022/07/15 13:38:33;;;;;;;3.70;1.17;;;23.40;63.90;;;;;;10108577;29;20027;-86
2022/07/15 13:43:33;;;;;;;2.55;0.93;;;23.10;62.60;;;;;;10102236;29;20048;-85
2022/07/15 13:48:40;;;;;;;1.67;1.10;;;23.00;65.80;;;;;;10085426;29;20615;-85
2022/07/15 13:53:49;;;;;;;1.25;0.85;;;23.30;65.20;;;;;;10099038;29;20036;-88
2022/07/15 13:59:00;;;;;;;3.53;1.17;;;23.60;64.10;;;;;;10101083;29;20037;-86
2022/07/15 14:04:01;;;;;;;3.65;1.42;;;23.50;65.70;;;;;;10108770;29;20537;-85
2022/07/15 14:09:01;;;;;;;4.55;1.00;;;23.20;63.10;;;;;;10120114;29;20049;-84
2022/07/15 14:14:03;;;;;;;2.13;0.90;;;22.90;65.20;;;;;;10102427;29;20611;-84
2022/07/15 14:24:28;;;;;;;1.60;0.65;;;23.10;65.00;;;;;;10109292;29;20028;-85
2022/07/15 14:29:28;;;;;;;3.08;0.82;;;22.90;64.70;;;;;;10106860;29;20044;-87
2022/07/15 14:34:40;;;;;;;1.65;0.82;;;22.70;62.40;;;;;;10115723;29;20552;-84
2022/07/15 14:40:43;;;;;;;2.28;0.98;;;22.00;64.10;;;;;;10120615;29;20620;-85
2022/07/15 14:45:44;;;;;;;2.15;0.80;;;22.00;65.10;;;;;;10104616;29;20028;-84
2022/07/15 14:50:45;;;;;;;1.67;0.57;;;22.10;63.60;;;;;;10105940;29;20048;-86
2022/07/15 14:55:49;;;;;;;4.75;0.95;;;22.10;63.00;;;;;;10103414;29;20029;-85
2022/07/15 15:00:49;;;;;;;1.52;0.80;;;21.70;63.40;;;;;;10105683;29;20505;-85
2022/07/15 15:05:50;;;;;;;2.47;0.85;;;21.60;65.40;;;;;;10121205;29;20056;-85
2022/07/15 15:10:51;;;;;;;3.40;0.80;;;21.80;65.40;;;;;;10104852;29;20485;-85
2022/07/15 15:15:51;;;;;;;3.75;0.88;;;21.70;63.50;;;;;;10129329;29;20082;-85
2022/07/15 15:20:52;;;;;;;2.72;0.70;;;21.30;65.10;;;;;;10107909;29;20060;-85
2022/07/15 15:31:12;;;;;;;1.73;0.80;;;21.00;67.10;;;;;;10126653;29;20068;-87
2022/07/15 15:36:14;;;;;;;2.05;0.70;;;21.20;66.40;;;;;;10109086;29;20036;-83
2022/07/15 15:41:14;;;;;;;4.65;1.10;;;21.30;65.20;;;;;;10407012;23;20075;-83
2022/07/15 15:46:15;;;;;;;3.17;1.30;;;21.20;64.20;;;;;;10105869;29;20036;-85
2022/07/15 15:51:34;;;;;;;3.47;0.90;;;20.90;64.20;;;;;;10128792;29;20040;-86
2022/07/15 15:56:52;;;;;;;1.48;0.80;;;20.80;66.30;;;;;;10105137;29;20065;-84
2022/07/15 16:01:53;;;;;;;1.55;0.80;;;20.70;64.90;;;;;;10102689;29;20032;-83
2022/07/15 16:06:54;;;;;;;2.45;1.10;;;20.30;66.40;;;;;;10088443;29;20036;-86
2022/07/15 16:17:51;;;;;;;0.98;0.60;;;19.70;67.50;;;;;;10121382;29;20032;-87
2022/07/15 16:22:52;;;;;;;2.47;0.82;;;19.80;67.90;;;;;;10108318;29;20033;-85
2022/07/15 16:27:53;;;;;;;2.88;0.90;;;19.90;66.50;;;;;;10125648;29;20108;-89
2022/07/15 16:33:42;;;;;;;4.47;1.02;;;20.00;66.60;;;;;;10102446;29;20036;-88
2022/07/15 16:38:42;;;;;;;2.97;1.00;;;19.90;68.80;;;;;;10099869;29;20036;-86
2022/07/15 16:43:43;;;;;;;7.40;1.45;;;19.80;68.20;;;;;;10125495;29;20037;-87
2022/07/15 16:48:44;;;;;;;3.28;1.08;;;19.80;68.80;;;;;;10126194;29;20025;-87
2022/07/15 16:53:47;;;;;;;3.55;1.08;;;19.70;69.20;;;;;;10106875;29;20048;-88
2022/07/15 16:59:10;;;;;;;3.10;0.77;;;19.50;68.40;;;;;;10116756;29;20048;-93
2022/07/15 17:04:10;;;;;;;2.92;1.20;;;19.30;70.30;;;;;;10086549;29;20033;-89
2022/07/15 17:09:11;;;;;;;3.28;1.23;;;19.30;71.50;;;;;;10089512;29;20039;-88
2022/07/15 17:14:13;;;;;;;5.57;0.90;;;19.20;70.80;;;;;;10112616;29;20037;-88
2022/07/15 17:19:13;;;;;;;1.67;1.08;;;19.30;69.80;;;;;;10124539;29;20077;-87
2022/07/15 17:24:14;;;;;;;3.28;1.20;;;19.30;70.70;;;;;;10123853;29;20421;-92
2022/07/15 17:29:15;;;;;;;2.22;1.00;;;19.20;69.00;;;;;;10100457;29;20568;-87
2022/07/15 17:34:16;;;;;;;3.90;1.02;;;19.00;69.00;;;;;;10106901;29;20096;-86
2022/07/15 17:39:32;;;;;;;5.43;1.33;;;18.90;69.70;;;;;;10113015;29;20113;-87
2022/07/15 17:44:33;;;;;;;1.60;0.68;;;18.70;70.90;;;;;;10096541;29;20043;-87
2022/07/15 17:49:34;;;;;;;1.67;0.90;;;18.60;72.60;;;;;;10107897;29;20503;-86
2022/07/15 17:54:34;;;;;;;2.65;0.90;;;18.40;73.30;;;;;;10102966;29;20049;-88
2022/07/15 17:59:37;;;;;;;2.38;1.23;;;18.30;72.30;;;;;;10103426;29;20063;-86
2022/07/15 18:04:38;;;;;;;1.08;0.82;;;18.10;73.00;;;;;;10094572;29;20083;-85
2022/07/15 18:09:38;;;;;;;2.92;1.27;;;18.00;75.90;;;;;;10114423;29;20086;-90
2022/07/15 18:14:39;;;;;;;2.55;1.27;;;17.80;75.40;;;;;;10092742;29;20036;-86
2022/07/15 18:19:39;;;;;;;3.55;1.02;;;17.60;75.60;;;;;;10088201;29;20088;-87
2022/07/15 18:24:40;;;;;;;4.13;1.38;;;17.10;81.10;;;;;;10112274;29;20128;-85
2022/07/15 18:29:41;;;;;;;5.38;1.38;;;16.50;83.00;;;;;;10109804;29;20040;-85
2022/07/15 18:34:42;;;;;;;1.75;1.23;;;16.00;85.20;;;;;;10076159;29;20128;-84
2022/07/15 18:39:42;;;;;;;4.28;1.58;;;15.60;87.80;;;;;;10100807;29;20052;-82
2022/07/15 18:44:43;;;;;;;4.82;1.80;;;15.20;89.20;;;;;;10121258;29;20032;-86
2022/07/15 18:49:43;;;;;;;3.72;1.38;;;14.90;91.00;;;;;;10130551;29;20457;-83
2022/07/15 18:54:44;;;;;;;5.57;1.55;;;14.70;91.90;;;;;;10109923;29;20029;-83
2022/07/15 18:59:46;;;;;;;2.88;1.50;;;14.50;92.80;;;;;;10125513;29;20441;-84
2022/07/15 19:04:47;;;;;;;3.83;1.50;;;14.40;93.60;;;;;;10110759;29;20080;-82
2022/07/15 19:09:48;;;;;;;3.80;1.58;;;14.20;94.50;;;;;;10119880;29;20051;-85
2022/07/15 19:14:49;;;;;;;4.55;1.30;;;14.10;96.10;;;;;;10120789;29;20481;-83
2022/07/15 19:19:49;;;;;;;4.63;1.90;;;14.00;96.70;;;;;;10118251;29;20040;-84
2022/07/15 19:24:50;;;;;;;2.05;1.52;;;13.90;97.90;;;;;;10121127;29;20039;-82
2022/07/15 19:29:51;;;;;;;5.70;1.67;;;13.90;98.20;;;;;;10138022;23;20067;-82
2022/07/15 19:34:52;;;;;;;6.05;1.55;;;13.80;99.00;;;;;;10116494;29;20059;-83
2022/07/15 19:39:53;;;;;;;4.75;1.98;;;13.70;99.20;;;;;;10126376;29;20135;-82
2022/07/15 19:44:53;;;;;;;5.45;1.70;;;13.60;99.90;;;;;;10128537;29;20111;-82
2022/07/15 19:49:54;;;;;;;2.45;1.50;;;13.50;99.90;;;;;;10119327;29;20040;-83
2022/07/15 19:54:55;;;;;;;5.70;1.77;;;13.30;99.90;;;;;;10120631;29;20051;-84
2022/07/15 20:05:15;;;;;;;2.95;2.00;;;13.20;99.90;;;;;;10115967;29;20072;-84
2022/07/15 20:10:18;;;;;;;8.65;3.00;;;13.20;99.90;;;;;;10107647;29;20135;-84
2022/07/15 20:15:19;;;;;;;7.57;4.18;;;13.20;99.90;;;;;;10120035;29;20041;-85
2022/07/15 20:20:23;;;;;;;7.20;4.00;;;13.20;99.90;;;;;;10132773;29;20032;-86
2022/07/15 20:25:24;;;;;;;8.00;4.18;;;13.10;99.90;;;;;;10110475;29;20040;-82
2022/07/15 20:30:25;;;;;;;8.93;3.28;;;13.00;99.90;;;;;;10137739;29;20412;-83
2022/07/15 20:35:26;;;;;;;5.65;2.88;;;12.90;99.90;;;;;;10124923;29;20040;-84
2022/07/15 20:40:50;;;;;;;6.05;2.85;;;12.90;99.90;;;;;;10131278;29;20031;-85
2022/07/15 20:46:13;;;;;;;6.68;2.10;;;12.70;99.90;;;;;;10122196;29;20059;-85
2022/07/15 20:51:14;;;;;;;202.25;165.23;;;12.60;99.90;;;;;;10124509;29;20044;-86
2022/07/15 20:56:33;;;;;;;3.67;2.03;;;12.60;99.90;;;;;;10139385;29;20029;-88
2022/07/15 21:01:35;;;;;;;5.72;2.60;;;12.50;99.90;;;;;;10113627;29;20396;-80
2022/07/15 21:06:35;;;;;;;4.80;1.75;;;12.60;99.90;;;;;;10129225;29;20827;-85
2022/07/15 21:11:36;;;;;;;3.97;2.40;;;12.60;99.90;;;;;;10114951;29;20045;-84
2022/07/15 21:16:36;;;;;;;5.70;2.67;;;12.50;99.90;;;;;;10126871;29;20064;-85
2022/07/15 21:21:59;;;;;;;5.65;2.28;;;12.50;99.90;;;;;;10117235;29;20036;-84
2022/07/15 21:27:03;;;;;;;4.88;2.28;;;12.50;99.90;;;;;;10114043;29;20382;-88
2022/07/15 21:32:04;;;;;;;4.70;2.20;;;12.50;99.90;;;;;;10106997;29;20487;-82
2022/07/15 21:37:08;;;;;;;5.05;2.38;;;12.40;99.90;;;;;;10122182;29;20028;-84
2022/07/15 21:42:08;;;;;;;4.80;2.22;;;12.30;99.90;;;;;;10117317;29;20091;-83
2022/07/15 21:47:09;;;;;;;5.50;2.15;;;12.20;99.90;;;;;;10127874;29;20047;-85
2022/07/15 21:52:32;;;;;;;4.90;2.05;;;12.30;99.90;;;;;;10140045;29;20052;-83
2022/07/15 21:57:33;;;;;;;7.50;2.35;;;12.30;99.90;;;;;;10113181;29;20055;-84
2022/07/15 22:08:54;;;;;;;5.72;1.95;;;12.30;99.90;;;;;;10074882;29;20062;-84
2022/07/15 22:13:59;;;;;;;8.20;2.42;;;12.20;99.90;;;;;;10123980;29;20044;-83
2022/07/15 22:19:00;;;;;;;4.88;2.85;;;12.10;99.90;;;;;;10104117;29;20125;-84
2022/07/15 22:24:01;;;;;;;6.82;2.25;;;12.10;99.90;;;;;;10104158;29;20040;-84
2022/07/15 22:29:04;;;;;;;5.13;2.53;;;12.10;99.90;;;;;;10130445;29;20059;-83
2022/07/15 22:34:04;;;;;;;7.25;2.30;;;12.10;99.90;;;;;;10134687;29;20033;-83
2022/07/15 22:39:05;;;;;;;3.50;1.90;;;12.10;99.90;;;;;;10152497;29;20626;-84
2022/07/15 22:44:05;;;;;;;4.47;2.28;;;12.00;99.90;;;;;;10140985;29;20036;-83
2022/07/15 22:49:06;;;;;;;7.78;2.30;;;12.00;99.90;;;;;;10146193;29;20036;-85
2022/07/15 22:54:06;;;;;;;4.05;2.30;;;12.00;99.90;;;;;;10132379;29;20446;-83
2022/07/15 22:59:07;;;;;;;4.80;2.30;;;11.90;99.90;;;;;;10130958;29;20029;-83
2022/07/15 23:04:08;;;;;;;5.65;2.25;;;11.80;99.90;;;;;;10130608;29;20020;-83
2022/07/15 23:09:09;;;;;;;5.88;2.15;;;11.80;99.90;;;;;;10132005;29;20038;-83
2022/07/15 23:14:10;;;;;;;4.80;2.22;;;11.60;99.90;;;;;;10131560;29;20045;-84
2022/07/15 23:19:11;;;;;;;3.42;2.10;;;11.60;99.90;;;;;;10129973;29;20099;-83
2022/07/15 23:24:12;;;;;;;6.65;2.63;;;11.60;99.90;;;;;;10131306;29;20036;-85
2022/07/15 23:29:12;;;;;;;8.25;3.15;;;11.40;99.90;;;;;;10131354;29;20063;-83
2022/07/15 23:34:13;;;;;;;4.22;2.65;;;11.30;99.90;;;;;;10130375;29;20039;-83
2022/07/15 23:39:13;;;;;;;7.80;3.15;;;11.30;99.90;;;;;;10131068;29;20054;-82
2022/07/15 23:44:14;;;;;;;5.00;3.17;;;11.20;99.90;;;;;;10130811;29;20080;-85
2022/07/15 23:49:15;;;;;;;7.07;3.63;;;11.20;99.90;;;;;;10129252;29;20080;-85
2022/07/15 23:54:15;;;;;;;5.43;3.03;;;11.10;99.90;;;;;;10129900;29;20072;-83
